This is the latest recevied weather packets stored in our database for station/object KA4YMY. If no packets are shown the sender has not sent any weather packets the latest 10 day(s).
| Time | Temp. | Humidity | Pressure | Rain* | Wind** | Luminosity | Snow |
|---|---|---|---|---|---|---|---|
| 1777515916 | 21.67° C | 75% | 1008.8 hPa | 0 mm | - | - | - |
| 1777515316 | 21.67° C | 77% | 1008.6 hPa | 0 mm | - | - | - |
| 1777514716 | 21.67° C | 79% | 1008.4 hPa | 0 mm | - | - | - |
| 1777514116 | 21.67° C | 79% | 1008.3 hPa | 0 mm | - | - | - |
| 1777513516 | 22.22° C | 79% | 1008.5 hPa | 0 mm | - | - | - |
| 1777512916 | 22.22° C | 78% | 1008.4 hPa | 0 mm | - | - | - |
| 1777512316 | 22.22° C | 78% | 1008 hPa | 0 mm | - | - | - |
| 1777511716 | 22.78° C | 77% | 1008 hPa | 0 mm | - | - | - |
| 1777511116 | 22.78° C | 77% | 1007.7 hPa | 0 mm | - | - | - |
| 1777510516 | 23.33° C | 75% | 1007.5 hPa | 0 mm | - | - | - |
| 1777509316 | 23.89° C | 72% | 1007.2 hPa | 0 mm | - | - | - |
| 1777508716 | 23.89° C | 72% | 1007.1 hPa | 0 mm | - | - | - |
| 1777508116 | 24.44° C | 71% | 1007.1 hPa | 0 mm | - | - | - |
| 1777507516 | 24.44° C | 70% | 1006.8 hPa | 0 mm | - | - | - |
| 1777506316 | 25° C | 70% | 1006.9 hPa | 0 mm | - | - | - |
| 1777505716 | 25° C | 69% | 1006.9 hPa | 0 mm | - | - | - |
| 1777503916 | 25.56° C | 67% | 1007.2 hPa | 0 mm | - | - | - |
| 1777503316 | 25.56° C | 66% | 1007.1 hPa | 0 mm | - | - | - |
| 1777502116 | 25.56° C | 65% | 1007.1 hPa | 0 mm | - | - | - |
| 1777499116 | 25.56° C | 65% | 1007.3 hPa | 0 mm | - | - | - |
| 1777480517 | 23.89° C | 73% | 1011.7 hPa | 0 mm | - | - | - |
| 1777479917 | 22.78° C | 76% | 1012 hPa | 0 mm | - | - | - |
| 1777476917 | 20° C | 86% | 1012.5 hPa | 0 mm | - | - | - |
| 1777470917 | 17.22° C | 92% | 1012.7 hPa | 0 mm | - | - | - |
| 1777469717 | 16.67° C | 94% | 1012.8 hPa | 0 mm | - | - | - |
* Rain latest hour (hover to see other rain measurements)
** Current wind speed in m/s (hover to see current wind gust speed)